createdAt,value
2023-04-22T00:00:54.882Z,68.22
2023-04-22T00:01:57.765Z,69.14
2023-04-22T00:03:01.866Z,69.33
2023-04-22T00:04:05.309Z,69.40
2023-04-22T00:05:08.783Z,69.21
2023-04-22T00:06:11.949Z,69.42
2023-04-22T00:07:15.784Z,69.37
2023-04-22T00:08:18.552Z,69.69
2023-04-22T00:09:20.363Z,69.90
2023-04-22T00:10:23.567Z,69.94
2023-04-22T00:11:26.704Z,69.62
2023-04-22T00:12:29.463Z,69.88
2023-04-22T00:13:31.387Z,69.74
2023-04-22T00:14:34.154Z,70.24
2023-04-22T00:15:35.999Z,69.46
2023-04-22T00:16:39.590Z,69.36
2023-04-22T00:17:42.693Z,69.47
2023-04-22T00:18:45.566Z,69.53
2023-04-22T00:19:47.640Z,69.77
2023-04-22T00:20:51.039Z,69.52
2023-04-22T00:21:53.230Z,69.63
2023-04-22T00:22:57.410Z,69.79
2023-04-22T00:23:59.197Z,69.80
2023-04-22T00:25:01.936Z,69.21
2023-04-22T00:26:04.815Z,69.51
2023-04-22T00:27:06.977Z,69.19
2023-04-22T00:28:09.960Z,69.38
2023-04-22T00:29:11.830Z,69.42
2023-04-22T00:30:15.023Z,70.02
2023-04-22T00:31:16.931Z,70.06
2023-04-22T00:32:22.462Z,70.69
2023-04-22T00:33:25.214Z,70.19
2023-04-22T00:34:28.003Z,70.57
2023-04-22T00:35:29.888Z,70.48
2023-04-22T00:36:32.673Z,70.28
2023-04-22T00:37:35.228Z,70.64
2023-04-22T00:38:40.509Z,70.14
2023-04-22T00:39:42.592Z,69.87
2023-04-22T00:40:46.369Z,69.91
2023-04-22T00:41:48.286Z,70.38
2023-04-22T00:42:52.232Z,70.33
2023-04-22T00:43:55.009Z,70.06
2023-04-22T00:44:58.259Z,69.92
2023-04-22T00:46:00.776Z,69.86
2023-04-22T00:47:03.841Z,69.87
2023-04-22T00:48:06.735Z,69.42
2023-04-22T00:49:09.780Z,69.96
2023-04-22T00:50:11.742Z,69.98
2023-04-22T00:51:14.905Z,70.59
2023-04-22T00:52:16.778Z,70.08
2023-04-22T00:53:19.588Z,69.97
2023-04-22T00:54:23.261Z,69.59
2023-04-22T00:55:26.306Z,70.38
2023-04-22T00:56:28.828Z,70.23
2023-04-22T00:57:32.064Z,69.97
2023-04-22T00:58:33.956Z,70.34
2023-04-22T00:59:36.782Z,69.86
2023-04-22T01:00:39.885Z,69.98
2023-04-22T01:01:43.226Z,69.98
2023-04-22T01:02:45.316Z,70.39
2023-04-22T01:03:49.575Z,70.36
2023-04-22T01:04:54.168Z,69.92
2023-04-22T01:05:57.327Z,70.00
2023-04-22T01:06:59.610Z,69.98
2023-04-22T01:08:02.582Z,69.91
2023-04-22T01:09:04.612Z,69.77
2023-04-22T01:10:10.259Z,70.13
2023-04-22T01:11:12.404Z,70.04
2023-04-22T01:12:15.366Z,69.97
2023-04-22T01:13:17.293Z,69.86
2023-04-22T01:14:20.694Z,69.93
2023-04-22T01:15:22.545Z,70.12
2023-04-22T01:16:25.876Z,70.08
2023-04-22T01:17:27.996Z,70.03
2023-04-22T01:18:31.121Z,70.01
2023-04-22T01:19:33.175Z,69.61
2023-04-22T01:20:35.990Z,69.72
2023-04-22T01:21:39.102Z,69.71
2023-04-22T01:22:43.574Z,69.94
2023-04-22T01:23:46.996Z,69.84
2023-04-22T01:24:50.245Z,69.72
2023-04-22T01:25:52.175Z,69.94
2023-04-22T01:26:55.678Z,69.95
2023-04-22T01:27:57.721Z,69.78
2023-04-22T01:29:02.509Z,69.82
2023-04-22T01:30:05.754Z,69.59
2023-04-22T01:31:08.942Z,69.60
2023-04-22T01:32:11.335Z,70.14
2023-04-22T01:33:14.328Z,70.15
2023-04-22T01:34:16.209Z,70.02
2023-04-22T01:35:19.294Z,70.16
2023-04-22T01:36:21.098Z,69.88
2023-04-22T01:37:23.916Z,69.86
2023-04-22T01:38:25.789Z,70.06
2023-04-22T01:39:30.263Z,69.98
2023-04-22T01:40:32.552Z,69.89
2023-04-22T01:41:35.917Z,70.13
2023-04-22T01:42:38.181Z,70.46
2023-04-22T01:43:41.012Z,70.48
2023-04-22T01:44:43.235Z,70.60
2023-04-22T01:45:46.796Z,70.34
2023-04-22T01:46:48.789Z,70.28
2023-04-22T01:47:51.631Z,70.24
2023-04-22T01:48:54.976Z,70.47
2023-04-22T01:49:58.650Z,70.24
2023-04-22T01:51:00.692Z,69.96
2023-04-22T01:52:03.455Z,70.16
2023-04-22T01:53:07.330Z,70.04
2023-04-22T01:54:11.274Z,69.91
2023-04-22T01:55:14.815Z,69.87
2023-04-22T01:56:19.636Z,69.99
2023-04-22T01:57:21.773Z,69.88
2023-04-22T01:58:24.577Z,69.81
2023-04-22T01:59:26.645Z,69.86
2023-04-22T02:00:29.505Z,69.86
2023-04-22T02:01:31.489Z,69.92
2023-04-22T02:02:34.462Z,70.09
2023-04-22T02:03:36.627Z,70.39
2023-04-22T02:04:39.673Z,70.33
2023-04-22T02:05:41.580Z,70.55
2023-04-22T02:06:44.773Z,70.13
2023-04-22T02:07:46.670Z,70.30
2023-04-22T02:08:52.469Z,70.19
2023-04-22T02:09:54.318Z,70.30
2023-04-22T02:11:00.792Z,70.19
2023-04-22T02:12:02.714Z,70.22
2023-04-22T02:13:05.877Z,70.23
2023-04-22T02:14:07.679Z,70.42
2023-04-22T02:15:12.208Z,70.27
2023-04-22T02:16:14.143Z,70.14
2023-04-22T02:17:17.965Z,69.94
2023-04-22T02:18:21.303Z,70.12
2023-04-22T02:19:24.150Z,70.07
2023-04-22T02:20:25.925Z,70.30
2023-04-22T02:21:29.806Z,70.46
2023-04-22T02:22:32.394Z,70.51
2023-04-22T02:23:35.359Z,70.47
2023-04-22T02:24:37.173Z,70.69
2023-04-22T02:25:40.462Z,70.62
2023-04-22T02:26:43.623Z,70.49
2023-04-22T02:27:46.514Z,70.56
2023-04-22T02:28:48.965Z,70.40
2023-04-22T02:29:51.753Z,70.55
2023-04-22T02:30:53.590Z,70.50
2023-04-22T02:31:59.261Z,70.81
2023-04-22T02:33:01.539Z,70.72
2023-04-22T02:34:04.375Z,71.02
2023-04-22T02:35:07.240Z,70.88
2023-04-22T02:36:10.217Z,71.04
2023-04-22T02:37:12.069Z,70.76
2023-04-22T02:38:15.038Z,70.69
2023-04-22T02:39:17.725Z,70.44
2023-04-22T02:40:20.592Z,70.74
2023-04-22T02:41:22.839Z,70.88
2023-04-22T02:42:27.238Z,70.74
2023-04-22T02:43:31.303Z,70.97
2023-04-22T02:44:33.188Z,70.81
2023-04-22T02:45:36.012Z,70.81
2023-04-22T02:46:37.890Z,70.98
2023-04-22T02:47:40.846Z,70.72
2023-04-22T02:48:43.038Z,70.80
2023-04-22T02:49:45.851Z,70.84
2023-04-22T02:50:47.729Z,70.62
2023-04-22T02:51:50.760Z,70.51
2023-04-22T02:52:52.614Z,70.70
2023-04-22T02:53:55.649Z,71.05
2023-04-22T02:54:57.451Z,70.79
2023-04-22T02:56:00.587Z,70.88
2023-04-22T02:57:03.035Z,70.90
2023-04-22T02:58:07.152Z,71.01
2023-04-22T02:59:09.032Z,71.17
2023-04-22T03:00:12.685Z,71.03
2023-04-22T03:01:14.591Z,71.21
2023-04-22T03:02:17.587Z,70.98
2023-04-22T03:03:34.802Z,71.27
2023-04-22T03:04:38.387Z,71.03
2023-04-22T03:05:40.537Z,71.03
2023-04-22T03:06:43.611Z,70.96
2023-04-22T03:07:47.441Z,71.10
2023-04-22T03:08:51.894Z,71.13
2023-04-22T03:09:55.873Z,71.08
2023-04-22T03:10:59.253Z,71.07
2023-04-22T03:12:02.560Z,71.24
2023-04-22T03:13:07.655Z,71.24
2023-04-22T03:14:09.578Z,71.39
2023-04-22T03:15:13.393Z,71.29
2023-04-22T03:16:16.765Z,71.45
2023-04-22T03:17:20.618Z,71.25
2023-04-22T03:18:22.664Z,71.14
2023-04-22T03:19:25.753Z,71.10
2023-04-22T03:20:28.482Z,71.27
2023-04-22T03:21:32.234Z,71.19
2023-04-22T03:22:35.252Z,71.21
2023-04-22T03:23:39.418Z,71.30
2023-04-22T03:24:41.279Z,71.32
2023-04-22T03:25:45.645Z,71.42
2023-04-22T03:26:47.449Z,71.63
2023-04-22T03:27:50.308Z,71.73
2023-04-22T03:28:54.474Z,71.50
2023-04-22T03:29:57.272Z,71.46
2023-04-22T03:30:59.291Z,71.54
2023-04-22T03:32:02.263Z,71.64
2023-04-22T03:33:04.292Z,71.48
2023-04-22T03:34:16.393Z,71.35
2023-04-22T03:35:20.511Z,71.40
2023-04-22T03:36:27.379Z,71.43
2023-04-22T03:37:29.803Z,71.42
2023-04-22T03:38:32.701Z,71.48
2023-04-22T03:39:34.499Z,71.50
2023-04-22T03:40:37.735Z,71.40
2023-04-22T03:41:49.051Z,71.69
2023-04-22T03:42:52.391Z,71.57
2023-04-22T03:43:58.901Z,71.49
2023-04-22T03:45:03.209Z,71.92
2023-04-22T03:46:10.832Z,71.84
2023-04-22T03:47:21.888Z,71.76
2023-04-22T03:48:29.981Z,72.01
2023-04-22T03:49:33.560Z,72.05
2023-04-22T03:50:36.019Z,71.86
2023-04-22T03:51:39.272Z,71.82
2023-04-22T03:52:46.382Z,71.88
2023-04-22T03:53:50.800Z,72.08
2023-04-22T03:54:55.860Z,71.78
2023-04-22T03:55:58.675Z,71.75
2023-04-22T03:57:01.510Z,72.15
2023-04-22T03:58:04.894Z,71.86
2023-04-22T03:59:08.093Z,71.89
2023-04-22T04:00:12.808Z,72.14
2023-04-22T04:01:24.124Z,72.51
2023-04-22T04:02:29.674Z,72.20
2023-04-22T04:03:34.436Z,72.20
2023-04-22T04:04:38.380Z,72.11
2023-04-22T04:05:42.364Z,72.02
2023-04-22T04:06:45.952Z,72.28
2023-04-22T04:07:47.982Z,72.50
2023-04-22T04:08:50.978Z,72.42
2023-04-22T04:09:52.820Z,72.46
2023-04-22T04:10:56.270Z,72.55
2023-04-22T04:11:59.198Z,72.56
2023-04-22T04:13:06.801Z,72.87
2023-04-22T04:14:20.266Z,72.97
2023-04-22T04:15:24.421Z,73.13
2023-04-22T04:16:26.860Z,72.87
2023-04-22T04:17:36.954Z,72.85
2023-04-22T04:18:39.977Z,72.73
2023-04-22T04:19:43.083Z,72.71
2023-04-22T04:20:45.093Z,72.90
2023-04-22T04:21:47.933Z,73.07
2023-04-22T04:22:50.289Z,73.11
2023-04-22T04:23:53.542Z,73.11
2023-04-22T04:25:00.114Z,73.47
2023-04-22T04:26:08.147Z,73.26
2023-04-22T04:27:13.700Z,73.53
2023-04-22T04:28:23.266Z,73.32
2023-04-22T04:29:27.002Z,73.54
2023-04-22T04:30:41.857Z,73.69
2023-04-22T04:31:43.916Z,73.59
2023-04-22T04:32:46.938Z,73.61
2023-04-22T04:33:50.851Z,73.59
2023-04-22T04:34:53.961Z,73.13
2023-04-22T04:35:58.536Z,73.52
2023-04-22T04:37:06.478Z,73.37
2023-04-22T04:38:17.921Z,73.94
2023-04-22T04:39:20.847Z,73.67
2023-04-22T04:40:23.277Z,73.86
2023-04-22T04:41:35.712Z,74.05
2023-04-22T04:42:38.702Z,73.73
2023-04-22T04:43:47.661Z,73.84
2023-04-22T04:44:59.847Z,74.44
2023-04-22T04:46:03.746Z,74.05
2023-04-22T04:47:10.241Z,74.54
2023-04-22T04:48:14.363Z,74.28
2023-04-22T04:49:20.809Z,74.93
2023-04-22T04:50:30.423Z,75.00
2023-04-22T04:51:36.101Z,74.90
2023-04-22T04:52:38.906Z,74.80
2023-04-22T04:53:41.155Z,74.91
2023-04-22T04:54:43.901Z,75.12
2023-04-22T04:55:45.740Z,74.91
2023-04-22T04:56:57.309Z,74.86
2023-04-22T04:57:59.794Z,75.25
2023-04-22T04:59:02.639Z,74.94
2023-04-22T05:00:08.294Z,75.39
2023-04-22T05:01:11.779Z,75.57
2023-04-22T05:02:13.850Z,75.94
2023-04-22T05:03:17.600Z,75.79
2023-04-22T05:04:20.526Z,76.60
2023-04-22T05:05:24.110Z,76.57
2023-04-22T05:06:27.084Z,76.50
2023-04-22T05:07:35.506Z,76.64
2023-04-22T05:08:37.674Z,77.07
2023-04-22T05:09:44.896Z,77.40
2023-04-22T05:10:47.534Z,77.45
2023-04-22T05:11:50.969Z,77.40
2023-04-22T05:12:55.792Z,77.23
2023-04-22T05:14:01.298Z,76.97
2023-04-22T05:15:11.716Z,76.91
2023-04-22T05:16:15.261Z,76.59
2023-04-22T05:17:17.219Z,76.42
2023-04-22T05:18:20.262Z,76.62
2023-04-22T05:19:22.828Z,76.33
2023-04-22T05:20:27.837Z,76.14
2023-04-22T05:21:29.661Z,76.05
2023-04-22T05:22:32.873Z,75.80
2023-04-22T05:23:34.733Z,75.97
2023-04-22T05:24:38.222Z,75.53
2023-04-22T05:25:40.441Z,76.01
2023-04-22T05:26:46.678Z,75.99
2023-04-22T05:27:52.005Z,76.03
2023-04-22T05:28:55.559Z,75.91
2023-04-22T05:29:57.641Z,75.26
2023-04-22T05:31:06.786Z,75.22
2023-04-22T05:32:08.799Z,74.99
2023-04-22T05:33:11.751Z,74.66
2023-04-22T05:34:13.947Z,74.35
2023-04-22T05:35:17.292Z,73.82
2023-04-22T05:36:19.358Z,74.02
2023-04-22T05:37:23.817Z,73.55
2023-04-22T05:38:26.759Z,72.81
2023-04-22T05:39:31.700Z,72.63
2023-04-22T05:40:36.100Z,72.22
2023-04-22T05:41:40.565Z,72.04
2023-04-22T05:42:44.719Z,71.04
2023-04-22T05:43:47.674Z,70.63
2023-04-22T05:44:53.607Z,69.95
2023-04-22T05:45:56.302Z,69.34
2023-04-22T05:47:00.551Z,69.55
2023-04-22T05:48:02.785Z,68.97
2023-04-22T05:49:09.630Z,67.64
2023-04-22T05:50:29.879Z,68.13
2023-04-22T05:51:39.397Z,67.48
2023-04-22T05:52:41.279Z,67.60
2023-04-22T05:53:49.247Z,67.39
2023-04-22T05:54:51.520Z,66.50
2023-04-22T05:55:54.418Z,66.18
2023-04-22T05:56:56.879Z,66.28
2023-04-22T05:58:00.538Z,66.17
2023-04-22T05:59:21.985Z,65.32
2023-04-22T06:00:25.665Z,65.40
2023-04-22T06:01:43.453Z,64.81
2023-04-22T06:02:48.858Z,64.69
2023-04-22T06:03:51.563Z,64.43
2023-04-22T06:04:54.847Z,63.99
2023-04-22T06:05:57.474Z,63.69
2023-04-22T06:07:01.121Z,63.22
2023-04-22T06:08:03.260Z,63.40
2023-04-22T06:09:07.067Z,63.17
2023-04-22T06:10:09.562Z,62.77
2023-04-22T06:11:12.534Z,62.10
2023-04-22T06:12:14.608Z,61.51
2023-04-22T06:13:17.442Z,60.67
2023-04-22T06:14:20.041Z,61.02
2023-04-22T06:15:23.319Z,60.16
2023-04-22T06:16:25.397Z,60.21
2023-04-22T06:17:28.888Z,59.37
2023-04-22T06:18:33.133Z,59.86
2023-04-22T06:19:36.545Z,59.31
2023-04-22T06:20:39.294Z,59.33
2023-04-22T06:21:43.152Z,58.74
2023-04-22T06:22:44.949Z,58.34
2023-04-22T06:23:48.041Z,57.82
2023-04-22T06:24:49.921Z,57.22
2023-04-22T06:25:52.715Z,57.16
2023-04-22T06:26:56.244Z,56.90
2023-04-22T06:27:59.514Z,56.53
2023-04-22T06:29:05.350Z,55.53
2023-04-22T06:30:12.000Z,54.84
2023-04-22T06:31:15.413Z,55.07
2023-04-22T06:32:18.304Z,54.75
2023-04-22T06:33:20.199Z,54.46
2023-04-22T06:34:24.560Z,54.47
2023-04-22T06:35:27.491Z,54.01
2023-04-22T06:36:32.070Z,53.55
2023-04-22T06:37:38.129Z,52.68
2023-04-22T06:38:42.587Z,52.69
2023-04-22T06:40:15.921Z,53.47
2023-04-22T06:41:47.804Z,53.06
2023-04-22T06:43:14.818Z,53.04
2023-04-22T06:44:43.319Z,52.47
2023-04-22T06:46:09.171Z,52.21
2023-04-22T06:47:29.573Z,51.63
2023-04-22T06:48:43.593Z,51.33
2023-04-22T06:50:11.942Z,51.03
2023-04-22T06:51:27.023Z,51.31
2023-04-22T06:52:29.904Z,51.05
2023-04-22T06:53:33.647Z,50.30
2023-04-22T06:54:36.681Z,50.35
2023-04-22T06:55:38.597Z,50.14
2023-04-22T06:56:41.443Z,49.92
2023-04-22T06:57:43.691Z,49.19
2023-04-22T06:58:46.473Z,48.79
2023-04-22T06:59:48.284Z,48.77
2023-04-22T07:00:51.817Z,48.09
2023-04-22T07:01:53.955Z,47.71
2023-04-22T07:02:57.580Z,47.30
2023-04-22T07:03:59.868Z,47.09
2023-04-22T07:05:02.794Z,46.43
2023-04-22T07:06:06.745Z,46.48
2023-04-22T07:07:10.668Z,46.42
2023-04-22T07:08:12.545Z,46.37
2023-04-22T07:09:15.550Z,46.13
2023-04-22T07:10:18.029Z,46.24
2023-04-22T07:11:40.738Z,45.95
2023-04-22T07:12:55.902Z,46.07
2023-04-22T07:13:58.854Z,45.76
2023-04-22T07:15:00.624Z,45.65
2023-04-22T07:16:03.437Z,45.52
2023-04-22T07:17:05.280Z,45.16
2023-04-22T07:18:08.232Z,45.04
2023-04-22T07:19:10.030Z,44.30
2023-04-22T07:20:12.935Z,44.20
2023-04-22T07:21:16.052Z,43.99
2023-04-22T07:22:18.794Z,43.80
2023-04-22T07:23:21.744Z,43.59
2023-04-22T07:24:24.508Z,43.10
2023-04-22T07:25:26.295Z,43.01
2023-04-22T07:26:31.771Z,42.85
2023-04-22T07:27:35.289Z,42.81
2023-04-22T07:28:39.973Z,42.40
2023-04-22T07:29:42.318Z,42.01
2023-04-22T07:30:46.031Z,41.96
2023-04-22T07:31:47.871Z,42.17
2023-04-22T07:32:50.764Z,42.83
2023-04-22T07:33:52.749Z,42.88
2023-04-22T07:34:55.555Z,42.30
2023-04-22T07:35:57.383Z,41.87
2023-04-22T07:37:01.556Z,40.94
2023-04-22T07:38:03.337Z,40.46
2023-04-22T07:39:06.334Z,40.51
2023-04-22T07:40:11.721Z,40.72
2023-04-22T07:41:14.598Z,40.13
2023-04-22T07:42:16.476Z,39.63
2023-04-22T07:43:19.813Z,39.24
2023-04-22T07:44:22.986Z,39.22
2023-04-22T07:45:24.938Z,39.16
2023-04-22T07:46:27.685Z,38.99
2023-04-22T07:47:29.494Z,38.90
2023-04-22T07:48:32.414Z,38.97
2023-04-22T07:49:34.317Z,38.59
2023-04-22T07:50:38.731Z,38.34
2023-04-22T07:51:40.976Z,37.29
2023-04-22T07:52:45.086Z,36.91
2023-04-22T07:53:46.924Z,36.71
2023-04-22T07:54:49.988Z,37.08
2023-04-22T07:55:52.084Z,36.90
2023-04-22T07:56:54.813Z,36.38
2023-04-22T07:57:56.688Z,36.25
2023-04-22T07:58:59.457Z,35.83
2023-04-22T08:00:01.922Z,35.85
2023-04-22T08:01:14.719Z,35.83
2023-04-22T08:02:16.548Z,35.62
2023-04-22T08:03:19.474Z,35.94
2023-04-22T08:04:23.062Z,35.36
2023-04-22T08:05:26.289Z,34.90
2023-04-22T08:06:28.268Z,34.89
2023-04-22T08:07:33.546Z,33.88
2023-04-22T08:08:36.922Z,33.60
2023-04-22T08:09:40.051Z,33.15
2023-04-22T08:10:42.628Z,33.97
2023-04-22T08:11:45.423Z,34.43
2023-04-22T08:12:47.240Z,34.87
2023-04-22T08:13:50.063Z,35.14
2023-04-22T08:14:51.925Z,34.71
2023-04-22T08:15:54.788Z,34.04
2023-04-22T08:16:57.668Z,34.27
2023-04-22T08:17:59.502Z,33.42
2023-04-22T08:19:02.257Z,33.35
2023-04-22T08:20:07.785Z,33.45
2023-04-22T08:21:11.019Z,33.64
2023-04-22T08:22:13.586Z,33.16
2023-04-22T08:23:16.725Z,32.78
2023-04-22T08:24:19.862Z,33.13
2023-04-22T08:25:22.643Z,33.12
2023-04-22T08:26:24.570Z,33.27
2023-04-22T08:27:27.304Z,33.10
2023-04-22T08:28:29.170Z,33.20
2023-04-22T08:29:32.502Z,32.89
2023-04-22T08:30:34.416Z,33.07
2023-04-22T08:31:37.866Z,32.22
2023-04-22T08:32:40.261Z,32.29
2023-04-22T08:33:43.054Z,31.99
2023-04-22T08:34:46.578Z,32.03
2023-04-22T08:35:49.463Z,31.81
2023-04-22T08:36:51.304Z,32.19
2023-04-22T08:37:54.062Z,32.11
2023-04-22T08:38:56.358Z,31.48
2023-04-22T08:40:00.453Z,31.11
2023-04-22T08:41:02.779Z,31.26
2023-04-22T08:42:06.355Z,30.83
2023-04-22T08:43:08.728Z,30.90
2023-04-22T08:44:11.673Z,31.30
2023-04-22T08:45:13.869Z,31.90
2023-04-22T08:46:16.902Z,32.39
2023-04-22T08:47:19.971Z,32.42
2023-04-22T08:48:23.156Z,32.17
2023-04-22T08:49:25.029Z,31.78
2023-04-22T08:50:28.059Z,31.90
2023-04-22T08:51:31.970Z,31.74
2023-04-22T08:52:34.745Z,32.09
2023-04-22T08:53:37.544Z,31.90
2023-04-22T08:54:40.383Z,32.42
2023-04-22T08:55:44.993Z,31.90
2023-04-22T08:56:47.858Z,32.69
2023-04-22T08:57:50.715Z,32.60
2023-04-22T08:58:54.797Z,32.48
2023-04-22T08:59:57.626Z,31.76
2023-04-22T09:00:59.682Z,31.65
2023-04-22T09:02:03.834Z,31.25
2023-04-22T09:03:07.074Z,30.71
2023-04-22T09:04:11.586Z,31.13
2023-04-22T09:05:14.045Z,30.57
2023-04-22T09:06:18.459Z,30.79
2023-04-22T09:07:24.023Z,30.82
2023-04-22T09:08:27.894Z,30.38
2023-04-22T09:09:30.827Z,30.06
2023-04-22T09:10:34.342Z,30.35
2023-04-22T09:11:37.762Z,30.81
2023-04-22T09:12:41.819Z,31.22
2023-04-22T09:13:43.686Z,30.98
2023-04-22T09:14:46.561Z,30.82
2023-04-22T09:15:48.307Z,30.45
2023-04-22T09:16:51.345Z,30.22
2023-04-22T09:17:53.355Z,30.24
2023-04-22T09:18:56.627Z,30.60
2023-04-22T09:19:59.406Z,30.29
2023-04-22T09:21:02.191Z,30.26
2023-04-22T09:22:04.422Z,31.00
2023-04-22T09:23:07.578Z,30.49
2023-04-22T09:24:11.658Z,30.19
2023-04-22T09:25:18.606Z,30.22
2023-04-22T09:26:22.330Z,30.46
2023-04-22T09:27:26.353Z,29.43
2023-04-22T09:28:30.832Z,30.07
2023-04-22T09:29:32.836Z,29.91
2023-04-22T09:30:37.781Z,29.75
2023-04-22T09:31:40.800Z,30.39
2023-04-22T09:32:43.795Z,30.35
2023-04-22T09:33:50.492Z,30.10
2023-04-22T09:34:54.698Z,29.70
2023-04-22T09:35:56.866Z,29.70
2023-04-22T09:36:59.642Z,29.71
2023-04-22T09:38:02.856Z,29.78
2023-04-22T09:39:08.103Z,29.69
2023-04-22T09:40:10.725Z,29.80
2023-04-22T09:41:13.519Z,28.92
2023-04-22T09:42:15.468Z,29.11
2023-04-22T09:43:21.693Z,28.88
2023-04-22T09:44:27.964Z,28.59
2023-04-22T09:45:32.778Z,28.86
2023-04-22T09:46:35.068Z,29.15
2023-04-22T09:47:37.933Z,29.28
2023-04-22T09:48:42.975Z,28.39
2023-04-22T09:49:47.631Z,28.18
2023-04-22T09:50:51.320Z,28.32
2023-04-22T09:51:58.124Z,27.92
2023-04-22T09:53:01.039Z,28.71
2023-04-22T09:54:06.471Z,28.16
2023-04-22T09:55:09.649Z,28.56
2023-04-22T09:56:12.528Z,28.08
2023-04-22T09:57:17.153Z,28.87
2023-04-22T09:58:23.851Z,28.94
2023-04-22T09:59:28.111Z,28.96
2023-04-22T10:00:32.264Z,29.27
2023-04-22T10:01:36.548Z,28.84
2023-04-22T10:02:39.704Z,29.07
2023-04-22T10:03:41.745Z,29.04
2023-04-22T10:04:44.614Z,28.55
2023-04-22T10:05:46.719Z,28.96
2023-04-22T10:06:50.309Z,28.81
2023-04-22T10:07:53.008Z,28.65
2023-04-22T10:08:56.050Z,28.37
2023-04-22T10:09:57.853Z,28.11
2023-04-22T10:11:00.694Z,28.31
2023-04-22T10:12:03.321Z,28.67
2023-04-22T10:13:06.796Z,28.91
2023-04-22T10:14:11.088Z,28.76
2023-04-22T10:15:13.898Z,29.05
2023-04-22T10:16:16.181Z,29.08
2023-04-22T10:17:20.003Z,29.44
2023-04-22T10:18:23.656Z,28.77
2023-04-22T10:19:27.948Z,29.20
2023-04-22T10:20:30.418Z,28.82
2023-04-22T10:21:33.669Z,29.38
2023-04-22T10:22:35.915Z,29.91
2023-04-22T10:23:38.947Z,29.53
2023-04-22T10:24:42.110Z,29.42
2023-04-22T10:25:47.654Z,29.46
2023-04-22T10:26:51.696Z,29.06
2023-04-22T10:27:55.328Z,29.08
2023-04-22T10:28:58.710Z,28.93
2023-04-22T10:30:02.991Z,29.10
2023-04-22T10:31:07.813Z,28.78
2023-04-22T10:32:24.561Z,27.44
2023-04-22T10:33:37.232Z,28.55
2023-04-22T10:34:39.999Z,29.16
2023-04-22T10:36:08.694Z,27.75
2023-04-22T10:37:13.211Z,29.58
2023-04-22T10:38:16.270Z,29.94
2023-04-22T10:39:19.151Z,30.43
2023-04-22T10:40:22.792Z,29.88
2023-04-22T10:41:26.308Z,29.87
2023-04-22T10:42:29.633Z,29.80
2023-04-22T10:43:41.288Z,29.20
2023-04-22T10:44:49.176Z,29.75
2023-04-22T10:45:52.377Z,29.01
2023-04-22T10:47:01.652Z,28.80
2023-04-22T10:48:04.189Z,29.03
2023-04-22T10:49:07.885Z,29.29
2023-04-22T10:50:12.293Z,28.84
2023-04-22T10:51:39.253Z,28.52
2023-04-22T10:52:43.553Z,28.67
2023-04-22T10:53:46.386Z,29.13
2023-04-22T10:55:01.571Z,29.69
2023-04-22T10:56:17.904Z,29.52
2023-04-22T10:57:22.668Z,29.82
2023-04-22T10:58:26.049Z,30.20
2023-04-22T10:59:28.140Z,29.36
2023-04-22T11:00:45.935Z,29.05
2023-04-22T11:01:55.772Z,29.64
2023-04-22T11:03:13.757Z,29.95
2023-04-22T11:04:23.640Z,29.76
2023-04-22T11:05:27.507Z,29.91
2023-04-22T11:06:31.116Z,30.50
2023-04-22T11:07:34.873Z,29.80
2023-04-22T11:08:37.631Z,29.81
2023-04-22T11:09:40.202Z,30.16
2023-04-22T11:10:44.966Z,29.53
2023-04-22T11:11:47.965Z,28.85
2023-04-22T11:12:50.867Z,28.70
2023-04-22T11:13:54.952Z,27.95
2023-04-22T11:14:56.793Z,28.47
2023-04-22T11:15:59.802Z,29.06
2023-04-22T11:17:02.997Z,28.86
2023-04-22T11:18:09.964Z,29.10
2023-04-22T11:19:13.001Z,29.31
2023-04-22T11:20:17.398Z,29.37
2023-04-22T11:21:21.718Z,28.98
2023-04-22T11:22:24.049Z,28.76
2023-04-22T11:23:28.209Z,28.81
2023-04-22T11:24:30.015Z,28.23
2023-04-22T11:25:32.926Z,28.43
2023-04-22T11:26:37.505Z,28.74
2023-04-22T11:27:40.207Z,28.71
2023-04-22T11:28:47.080Z,28.66
2023-04-22T11:30:00.267Z,28.13
2023-04-22T11:31:04.942Z,28.87
2023-04-22T11:32:11.243Z,28.29
2023-04-22T11:33:16.096Z,28.15
2023-04-22T11:34:18.387Z,27.83
2023-04-22T11:35:23.253Z,27.84
2023-04-22T11:36:26.454Z,27.55
2023-04-22T11:37:29.336Z,27.50
2023-04-22T11:38:33.079Z,27.30
2023-04-22T11:39:36.071Z,27.38
2023-04-22T11:40:46.610Z,27.20
2023-04-22T11:41:49.140Z,28.70
2023-04-22T11:42:51.941Z,28.67
2023-04-22T11:43:55.653Z,28.54
2023-04-22T11:44:57.615Z,28.87
2023-04-22T11:46:00.397Z,29.32
2023-04-22T11:47:02.213Z,29.30
2023-04-22T11:48:07.428Z,29.22
2023-04-22T11:49:13.810Z,29.16
2023-04-22T11:50:17.633Z,29.35
2023-04-22T11:51:20.445Z,29.59
2023-04-22T11:52:22.350Z,29.59
2023-04-22T11:53:25.088Z,29.57
2023-04-22T11:54:34.197Z,28.72
2023-04-22T11:55:40.075Z,29.65
2023-04-22T11:56:41.915Z,29.31
2023-04-22T11:57:46.676Z,29.35
2023-04-22T11:58:49.528Z,29.27
2023-04-22T12:00:01.408Z,28.57
2023-04-22T12:01:07.549Z,28.49
2023-04-22T12:02:10.027Z,28.46
2023-04-22T12:03:18.508Z,27.69
2023-04-22T12:04:21.692Z,28.50
2023-04-22T12:05:34.633Z,27.77
2023-04-22T12:06:36.934Z,28.91
2023-04-22T12:07:41.380Z,28.41
2023-04-22T12:08:44.934Z,28.09
2023-04-22T12:09:46.764Z,27.93
2023-04-22T12:10:54.667Z,27.72
2023-04-22T12:11:56.553Z,28.00
2023-04-22T12:13:01.306Z,27.63
2023-04-22T12:14:07.452Z,28.31
2023-04-22T12:15:13.429Z,27.87
2023-04-22T12:16:19.809Z,27.79
2023-04-22T12:17:23.492Z,27.13
2023-04-22T12:18:31.636Z,26.12
2023-04-22T12:19:33.455Z,26.79
2023-04-22T12:20:37.587Z,26.51
2023-04-22T12:21:42.026Z,26.89
2023-04-22T12:22:44.742Z,27.42
2023-04-22T12:23:48.782Z,27.43
2023-04-22T12:24:51.033Z,27.26
2023-04-22T12:25:53.926Z,27.62
2023-04-22T12:26:57.407Z,27.17
2023-04-22T12:28:00.438Z,27.01
2023-04-22T12:29:03.346Z,27.15
2023-04-22T12:30:08.145Z,26.95
2023-04-22T12:31:11.614Z,26.59
2023-04-22T12:32:13.909Z,26.80
2023-04-22T12:33:17.161Z,26.02
2023-04-22T12:34:20.337Z,25.78
2023-04-22T12:35:24.359Z,26.12
2023-04-22T12:36:26.385Z,26.15
2023-04-22T12:37:29.374Z,26.00
2023-04-22T12:38:33.437Z,25.69
2023-04-22T12:39:35.597Z,25.42
2023-04-22T12:40:38.394Z,25.10
2023-04-22T12:41:40.220Z,25.70
2023-04-22T12:42:43.184Z,25.50
2023-04-22T12:43:48.053Z,25.41
2023-04-22T12:44:49.873Z,25.24
2023-04-22T12:45:52.822Z,25.07
2023-04-22T12:46:54.774Z,24.85
2023-04-22T12:47:58.120Z,25.60
2023-04-22T12:49:00.515Z,25.51
2023-04-22T12:50:06.560Z,25.63
2023-04-22T12:51:08.370Z,25.70
2023-04-22T12:52:11.366Z,25.79
2023-04-22T12:53:13.258Z,26.14
2023-04-22T12:54:16.067Z,26.07
2023-04-22T12:55:20.881Z,26.04
2023-04-22T12:56:22.720Z,25.47
2023-04-22T12:57:27.056Z,25.96
2023-04-22T12:58:30.176Z,26.24
2023-04-22T12:59:31.948Z,25.53
2023-04-22T13:00:34.769Z,25.07
2023-04-22T13:01:36.762Z,25.23
2023-04-22T13:02:39.691Z,24.82
2023-04-22T13:03:41.914Z,24.88
2023-04-22T13:04:45.654Z,24.67
2023-04-22T13:05:49.811Z,24.72
2023-04-22T13:06:56.271Z,24.35
2023-04-22T13:08:06.632Z,24.81
2023-04-22T13:09:09.820Z,24.30
2023-04-22T13:10:14.389Z,24.29
2023-04-22T13:11:16.252Z,24.44
2023-04-22T13:12:19.024Z,24.60
2023-04-22T13:13:20.794Z,24.51
2023-04-22T13:14:23.865Z,24.46
2023-04-22T13:15:26.699Z,24.99
2023-04-22T13:16:28.540Z,24.38
2023-04-22T13:17:31.755Z,24.49
2023-04-22T13:18:33.592Z,24.40
2023-04-22T13:19:36.451Z,24.58
2023-04-22T13:20:38.642Z,24.57
2023-04-22T13:21:42.795Z,24.64
2023-04-22T13:22:45.999Z,24.63
2023-04-22T13:23:48.010Z,24.22
2023-04-22T13:24:51.141Z,24.82
2023-04-22T13:25:54.306Z,25.13
2023-04-22T13:26:57.242Z,25.13
2023-04-22T13:28:00.081Z,25.14
2023-04-22T13:29:02.868Z,25.18
2023-04-22T13:30:08.755Z,25.02
2023-04-22T13:31:11.302Z,25.04
2023-04-22T13:32:14.116Z,25.42
2023-04-22T13:33:16.114Z,25.16
2023-04-22T13:34:18.904Z,25.24
2023-04-22T13:35:20.922Z,25.28
2023-04-22T13:36:24.415Z,24.71
2023-04-22T13:37:28.144Z,24.96
2023-04-22T13:38:31.057Z,24.99
2023-04-22T13:39:32.974Z,24.81
2023-04-22T13:40:35.957Z,24.65
2023-04-22T13:41:37.919Z,24.28
2023-04-22T13:42:41.243Z,24.62
2023-04-22T13:43:43.040Z,24.29
2023-04-22T13:44:45.819Z,24.05
2023-04-22T13:45:48.842Z,24.14